ExpreSS Skopelitis — SW3130 — position and weather

sailwx.info

Track history (hours):
 
Tides and Currents Weather Stations Pressure Air Temp Water Temp Dewpoint Dewpoint Depression Visibility Wind Speed Wind Dir Waves Ship Positions

ExpreSS Skopelitis

Last reported at 2015-Jul-04 17:22 UTC. Time now 2015-Jul-04 19:06 UTC.
Position N 36°50' E 025°50'.

Length 45 m; draft 2.4 m.

Type: Passenger vessel. MMSI: 237029400.

Date/timePositionNaut miles runAvg speedWind from/ knotsBaromVisibWave heightAir tempDewpointWater temp
2015-Jul-04 17:22N 36°50' E 025°50'7 6.2
2015-Jul-04 16:14N 36°56' E 025°55'11 6.4
2015-Jul-04 14:31N 37°00' E 025°43'9 8.9
2015-Jul-04 13:31N 36°55' E 025°34'13 6.7
2015-Jul-04 11:33N 37°02' E 025°20'4 4.4
2015-Jul-04 10:33N 37°06' E 025°22'0 0.0
2015-Jul-04 09:33N 37°06' E 025°22'8 7.7
2015-Jul-04 08:30N 36°58' E 025°23'9 8.8
2015-Jul-04 07:31N 36°52' E 025°31'6 6.4
2015-Jul-04 06:33N 36°56' E 025°37'14 6.8
2015-Jul-04 04:32N 36°58' E 025°54'6 5.8
2015-Jul-04 03:33N 36°52' E 025°54'6 0.5
2015-Jul-03 14:33N 36°52' E 025°46'9 9.6
2015-Jul-03 13:33N 36°56' E 025°35'13 6.5
2015-Jul-03 11:33N 37°02' E 025°21'5 4.9
2015-Jul-03 10:33N 37°06' E 025°22'0 0.0
2015-Jul-03 09:33N 37°06' E 025°22'0 0.0
2015-Jul-03 08:33N 37°06' E 025°22'3 3.3
2015-Jul-03 07:33N 37°04' E 025°20'1211.7
2015-Jul-03 06:33N 36°53' E 025°27'7 6.5
2015-Jul-03 05:32N 36°56' E 025°35'9 9.4
2015-Jul-03 04:33N 36°52' E 025°46'1 0.0
2015-Jul-02 14:29N 36°52' E 025°46'9 9.9
2015-Jul-02 13:32N 36°56' E 025°36'13 6.8
2015-Jul-02 11:33N 37°02' E 025°21'5 4.7
2015-Jul-02 10:33N 37°06' E 025°22'0 0.0
2015-Jul-02 09:33N 37°06' E 025°22'0 0.0
2015-Jul-02 08:33N 37°06' E 025°22'3 3.0
2015-Jul-02 07:33N 37°04' E 025°20'1510.0
2015-Jul-02 06:06N 36°52' E 025°31'4 8.1
2015-Jul-02 05:33N 36°55' E 025°35'10 9.6
2015-Jul-02 04:32N 36°52' E 025°46'4 0.3
2015-Jul-01 17:16N 36°50' E 025°50'7 8.7
2015-Jul-01 16:27N 36°54' E 025°58'1112.3
2015-Jul-01 15:33N 37°03' E 025°50'6 6.2
2015-Jul-01 14:33N 37°00' E 025°43'9 8.5
2015-Jul-01 13:31N 36°55' E 025°34'12 6.3
2015-Jul-01 11:33N 37°02' E 025°21'5 4.9
2015-Jul-01 10:33N 37°06' E 025°22'0 0.0
2015-Jul-01 09:33N 37°06' E 025°22'5 4.8
2015-Jul-01 08:33N 37°02' E 025°21'1210.2
2015-Jul-01 07:22N 36°52' E 025°31'6 6.9
2015-Jul-01 06:31N 36°56' E 025°36'1212.6
2015-Jul-01 05:33N 37°05' E 025°46'9 8.6
2015-Jul-01 04:31N 36°59' E 025°54'6 6.5
2015-Jul-01 03:32N 36°52' E 025°54'4 0.3
2015-Jun-30 14:32N 36°51' E 025°48'1111.1
2015-Jun-30 13:31N 36°56' E 025°36'13 6.7
2015-Jun-30 11:33N 37°01' E 025°21'5 5.2
2015-Jun-30 10:33N 37°06' E 025°22'0 0.0
2015-Jun-30 09:33N 37°06' E 025°22'0 0.0
2015-Jun-30 08:33N 37°06' E 025°22'5 4.6
2015-Jun-30 07:33N 37°02' E 025°21'12 9.8
2015-Jun-30 06:18N 36°52' E 025°31'6 7.4
2015-Jun-30 05:32N 36°56' E 025°36'1010.4
2015-Jun-30 04:33N 36°51' E 025°48'2 0.2
2015-Jun-29 17:03N 36°51' E 025°51'611.9
2015-Jun-29 16:31N 36°54' E 025°58'10 9.9
2015-Jun-29 15:29N 37°02' E 025°50'5 5.3
2015-Jun-29 14:32N 37°02' E 025°44'11 9.5
2015-Jun-29 13:21N 36°55' E 025°33'12 6.5
2015-Jun-29 11:33N 37°01' E 025°21'5 5.3
2015-Jun-29 10:33N 37°06' E 025°22'0 0.0
2015-Jun-29 09:33N 37°06' E 025°22'5 5.3
2015-Jun-29 08:33N 37°01' E 025°21'13 6.2
2015-Jun-29 06:28N 36°56' E 025°36'1112.2
2015-Jun-29 05:33N 37°04' E 025°46'8 7.7
2015-Jun-29 04:31N 36°59' E 025°54'7 6.9
2015-Jun-29 03:31N 36°52' E 025°54'4 0.3
2015-Jun-28 13:28N 36°50' E 025°50'1111.6
2015-Jun-28 12:29N 36°49' E 025°36'21 7.1
2015-Jun-28 09:31N 36°32' E 025°20'1010.7
2015-Jun-28 08:33N 36°23' E 025°26'9 8.5
2015-Jun-28 07:33N 36°32' E 025°25'1212.3
2015-Jun-28 06:33N 36°40' E 025°35'1212.3
2015-Jun-28 05:33N 36°50' E 025°46'4 0.3
2015-Jun-27 17:29N 36°50' E 025°50'8 5.9
2015-Jun-27 16:12N 36°57' E 025°54'9 5.5
2015-Jun-27 14:33N 37°00' E 025°43'18 5.9
2015-Jun-27 11:33N 37°01' E 025°21'5 5.0
2015-Jun-27 10:33N 37°06' E 025°22'0 0.0
2015-Jun-27 09:33N 37°06' E 025°22'16 7.6
2015-Jun-27 07:31N 36°52' E 025°31'7 6.8
2015-Jun-27 06:34N 36°56' E 025°37'14 6.7
2015-Jun-27 04:30N 36°58' E 025°54'6 6.0
2015-Jun-27 03:33N 36°52' E 025°54'6 0.5
2015-Jun-26 14:32N 36°52' E 025°46'9 9.1
2015-Jun-26 13:31N 36°56' E 025°36'13 6.5
2015-Jun-26 11:33N 37°01' E 025°21'5 5.3
2015-Jun-26 10:33N 37°06' E 025°22'0 0.0
2015-Jun-26 09:33N 37°06' E 025°22'0 0.0
2015-Jun-26 08:33N 37°06' E 025°22'2 2.4
2015-Jun-26 07:33N 37°05' E 025°20'1510.4
2015-Jun-26 06:05N 36°52' E 025°30'12 0.8
2015-Jun-25 14:33N 36°52' E 025°46'10 9.4
2015-Jun-25 13:30N 36°55' E 025°34'13 6.9
2015-Jun-25 11:33N 37°03' E 025°20'4 4.0
2015-Jun-25 10:33N 37°06' E 025°22'0 0.0
2015-Jun-25 09:33N 37°06' E 025°22'0 0.0
2015-Jun-25 08:33N 37°06' E 025°22'3 2.5
2015-Jun-25 07:33N 37°05' E 025°20'1211.8
2015-Jun-25 06:33N 36°54' E 025°27'6 6.0
2015-Jun-25 05:29N 36°55' E 025°35'910.0
2015-Jun-25 04:33N 36°52' E 025°46'  
Track history (hours):
 
Tides and Currents Weather Stations Pressure Air Temp Water Temp Dewpoint Dewpoint Depression Visibility Wind Speed Wind Dir Waves Ship Positions

ExpreSS Skopelitis

Last reported at 2015-Jul-04 17:22 UTC. Time now 2015-Jul-04 19:06 UTC.
Position N 36°50' E 025°50'.

Length 45 m; draft 2.4 m.

Type: Passenger vessel. MMSI: 237029400.

Date/timePositionNaut miles runAvg speedWind from/ knotsBaromVisibWave heightAir tempDewpointWater temp
2015-Jul-04 17:22N 36°50' E 025°50'7 6.2
2015-Jul-04 16:14N 36°56' E 025°55'11 6.4
2015-Jul-04 14:31N 37°00' E 025°43'9 8.9
2015-Jul-04 13:31N 36°55' E 025°34'13 6.7
2015-Jul-04 11:33N 37°02' E 025°20'4 4.4
2015-Jul-04 10:33N 37°06' E 025°22'0 0.0
2015-Jul-04 09:33N 37°06' E 025°22'8 7.7
2015-Jul-04 08:30N 36°58' E 025°23'9 8.8
2015-Jul-04 07:31N 36°52' E 025°31'6 6.4
2015-Jul-04 06:33N 36°56' E 025°37'14 6.8
2015-Jul-04 04:32N 36°58' E 025°54'6 5.8
2015-Jul-04 03:33N 36°52' E 025°54'6 0.5
2015-Jul-03 14:33N 36°52' E 025°46'9 9.6
2015-Jul-03 13:33N 36°56' E 025°35'13 6.5
2015-Jul-03 11:33N 37°02' E 025°21'5 4.9
2015-Jul-03 10:33N 37°06' E 025°22'0 0.0
2015-Jul-03 09:33N 37°06' E 025°22'0 0.0
2015-Jul-03 08:33N 37°06' E 025°22'3 3.3
2015-Jul-03 07:33N 37°04' E 025°20'1211.7
2015-Jul-03 06:33N 36°53' E 025°27'7 6.5
2015-Jul-03 05:32N 36°56' E 025°35'9 9.4
2015-Jul-03 04:33N 36°52' E 025°46'1 0.0
2015-Jul-02 14:29N 36°52' E 025°46'9 9.9
2015-Jul-02 13:32N 36°56' E 025°36'13 6.8
2015-Jul-02 11:33N 37°02' E 025°21'5 4.7
2015-Jul-02 10:33N 37°06' E 025°22'0 0.0
2015-Jul-02 09:33N 37°06' E 025°22'0 0.0
2015-Jul-02 08:33N 37°06' E 025°22'3 3.0
2015-Jul-02 07:33N 37°04' E 025°20'1510.0
2015-Jul-02 06:06N 36°52' E 025°31'4 8.1
2015-Jul-02 05:33N 36°55' E 025°35'10 9.6
2015-Jul-02 04:32N 36°52' E 025°46'4 0.3
2015-Jul-01 17:16N 36°50' E 025°50'7 8.7
2015-Jul-01 16:27N 36°54' E 025°58'1112.3
2015-Jul-01 15:33N 37°03' E 025°50'6 6.2
2015-Jul-01 14:33N 37°00' E 025°43'9 8.5
2015-Jul-01 13:31N 36°55' E 025°34'12 6.3
2015-Jul-01 11:33N 37°02' E 025°21'5 4.9
2015-Jul-01 10:33N 37°06' E 025°22'0 0.0
2015-Jul-01 09:33N 37°06' E 025°22'5 4.8
2015-Jul-01 08:33N 37°02' E 025°21'1210.2
2015-Jul-01 07:22N 36°52' E 025°31'6 6.9
2015-Jul-01 06:31N 36°56' E 025°36'1212.6
2015-Jul-01 05:33N 37°05' E 025°46'9 8.6
2015-Jul-01 04:31N 36°59' E 025°54'6 6.5
2015-Jul-01 03:32N 36°52' E 025°54'4 0.3
2015-Jun-30 14:32N 36°51' E 025°48'1111.1
2015-Jun-30 13:31N 36°56' E 025°36'13 6.7
2015-Jun-30 11:33N 37°01' E 025°21'5 5.2
2015-Jun-30 10:33N 37°06' E 025°22'0 0.0
2015-Jun-30 09:33N 37°06' E 025°22'0 0.0
2015-Jun-30 08:33N 37°06' E 025°22'5 4.6
2015-Jun-30 07:33N 37°02' E 025°21'12 9.8
2015-Jun-30 06:18N 36°52' E 025°31'6 7.4
2015-Jun-30 05:32N 36°56' E 025°36'1010.4
2015-Jun-30 04:33N 36°51' E 025°48'2 0.2
2015-Jun-29 17:03N 36°51' E 025°51'611.9
2015-Jun-29 16:31N 36°54' E 025°58'10 9.9
2015-Jun-29 15:29N 37°02' E 025°50'5 5.3
2015-Jun-29 14:32N 37°02' E 025°44'11 9.5
2015-Jun-29 13:21N 36°55' E 025°33'12 6.5
2015-Jun-29 11:33N 37°01' E 025°21'5 5.3
2015-Jun-29 10:33N 37°06' E 025°22'0 0.0
2015-Jun-29 09:33N 37°06' E 025°22'5 5.3
2015-Jun-29 08:33N 37°01' E 025°21'13 6.2
2015-Jun-29 06:28N 36°56' E 025°36'1112.2
2015-Jun-29 05:33N 37°04' E 025°46'8 7.7
2015-Jun-29 04:31N 36°59' E 025°54'7 6.9
2015-Jun-29 03:31N 36°52' E 025°54'4 0.3
2015-Jun-28 13:28N 36°50' E 025°50'1111.6
2015-Jun-28 12:29N 36°49' E 025°36'21 7.1
2015-Jun-28 09:31N 36°32' E 025°20'1010.7
2015-Jun-28 08:33N 36°23' E 025°26'9 8.5
2015-Jun-28 07:33N 36°32' E 025°25'1212.3
2015-Jun-28 06:33N 36°40' E 025°35'1212.3
2015-Jun-28 05:33N 36°50' E 025°46'4 0.3
2015-Jun-27 17:29N 36°50' E 025°50'8 5.9
2015-Jun-27 16:12N 36°57' E 025°54'9 5.5
2015-Jun-27 14:33N 37°00' E 025°43'18 5.9
2015-Jun-27 11:33N 37°01' E 025°21'5 5.0
2015-Jun-27 10:33N 37°06' E 025°22'0 0.0
2015-Jun-27 09:33N 37°06' E 025°22'16 7.6
2015-Jun-27 07:31N 36°52' E 025°31'7 6.8
2015-Jun-27 06:34N 36°56' E 025°37'14 6.7
2015-Jun-27 04:30N 36°58' E 025°54'6 6.0
2015-Jun-27 03:33N 36°52' E 025°54'6 0.5
2015-Jun-26 14:32N 36°52' E 025°46'9 9.1
2015-Jun-26 13:31N 36°56' E 025°36'13 6.5
2015-Jun-26 11:33N 37°01' E 025°21'5 5.3
2015-Jun-26 10:33N 37°06' E 025°22'0 0.0
2015-Jun-26 09:33N 37°06' E 025°22'0 0.0
2015-Jun-26 08:33N 37°06' E 025°22'2 2.4
2015-Jun-26 07:33N 37°05' E 025°20'1510.4
2015-Jun-26 06:05N 36°52' E 025°30'12 0.8
2015-Jun-25 14:33N 36°52' E 025°46'10 9.4
2015-Jun-25 13:30N 36°55' E 025°34'13 6.9
2015-Jun-25 11:33N 37°03' E 025°20'4 4.0
2015-Jun-25 10:33N 37°06' E 025°22'0 0.0
2015-Jun-25 09:33N 37°06' E 025°22'0 0.0
2015-Jun-25 08:33N 37°06' E 025°22'3 2.5
2015-Jun-25 07:33N 37°05' E 025°20'1211.8
2015-Jun-25 06:33N 36°54' E 025°27'6 6.0
2015-Jun-25 05:29N 36°55' E 025°35'910.0
2015-Jun-25 04:33N 36°52' E 025°46'  

Dump ship's entire track history